Time;durP1;ratioP1;P1;durP2;ratioP2;P2;SDS_P1;SDS_P2;PMS_P1;PMS_P2;Temp;Humidity;BMP_temperature;BMP_pressure;BME280_temperature;BME280_humidity;BME280_pressure;Samples;Min_cycle;Max_cycle;Signal;HPM_P1;HPM_P2
2023/11/22 00:01:06;;;;;;;14.53;9.00;;;7.70;52.40;;;;;;5031272;28;20205;-69
2023/11/22 00:03:32;;;;;;;15.20;9.37;;;7.80;52.40;;;;;;5032555;28;20716;-69
2023/11/22 00:05:58;;;;;;;12.37;8.50;;;7.80;52.00;;;;;;5032849;28;20426;-70
2023/11/22 00:08:24;;;;;;;14.87;7.97;;;7.80;50.80;;;;;;5032962;28;20237;-69
2023/11/22 00:10:49;;;;;;;14.00;8.63;;;7.80;49.80;;;;;;5032902;28;20436;-70
2023/11/22 00:13:15;;;;;;;17.27;9.37;;;7.70;50.40;;;;;;5033119;28;20236;-67
2023/11/22 00:15:40;;;;;;;20.63;9.30;;;7.70;51.80;;;;;;5032474;28;20180;-69
2023/11/22 00:18:06;;;;;;;10.67;8.43;;;7.80;52.40;;;;;;5031072;28;20198;-69
2023/11/22 00:20:33;;;;;;;14.87;9.50;;;7.80;52.20;;;;;;5030957;28;20206;-68
2023/11/22 00:22:59;;;;;;;13.27;10.00;;;7.80;51.20;;;;;;5032192;28;20428;-67
2023/11/22 00:25:25;;;;;;;13.27;9.10;;;7.80;51.90;;;;;;5030831;28;20424;-68
2023/11/22 00:27:50;;;;;;;17.63;10.73;;;7.80;52.10;;;;;;5030730;28;20486;-68
2023/11/22 00:30:16;;;;;;;12.07;9.07;;;7.70;52.40;;;;;;5031951;28;20193;-69
2023/11/22 00:32:42;;;;;;;18.43;9.70;;;7.70;52.20;;;;;;5032058;28;20169;-68
2023/11/22 00:35:08;;;;;;;13.80;9.53;;;7.70;52.70;;;;;;5031794;28;20179;-69
2023/11/22 00:37:37;;;;;;;12.43;8.90;;;7.70;52.70;;;;;;5030930;28;20919;-71
2023/11/22 00:40:10;;;;;;;12.03;9.20;;;7.70;53.00;;;;;;5033129;28;20216;-69
2023/11/22 00:42:39;;;;;;;16.33;8.87;;;7.70;52.40;;;;;;5033013;28;20455;-69
2023/11/22 00:45:06;;;;;;;15.20;8.87;;;7.70;53.40;;;;;;5033382;28;20422;-69
2023/11/22 00:47:35;;;;;;;15.90;10.00;;;7.70;52.50;;;;;;5033335;28;20460;-69
2023/11/22 00:50:01;;;;;;;11.63;9.10;;;7.70;53.10;;;;;;5036056;28;20443;-69
2023/11/22 00:52:27;;;;;;;12.20;8.57;;;7.70;52.70;;;;;;5034218;28;20420;-69
2023/11/22 00:54:53;;;;;;;13.17;8.80;;;7.70;53.00;;;;;;5032395;28;20931;-69
2023/11/22 00:57:19;;;;;;;13.63;9.07;;;7.70;55.40;;;;;;5032807;28;20260;-69
2023/11/22 00:59:44;;;;;;;11.40;8.73;;;7.80;53.70;;;;;;5031344;28;20637;-68
2023/11/22 01:02:10;;;;;;;8.90;7.37;;;7.80;53.00;;;;;;5031022;28;20191;-70
2023/11/22 01:04:36;;;;;;;15.10;8.97;;;7.80;53.20;;;;;;5032521;28;20546;-67
2023/11/22 01:07:06;;;;;;;15.23;9.37;;;7.80;52.60;;;;;;5032197;28;20197;-68
2023/11/22 01:09:33;;;;;;;17.43;9.87;;;7.80;52.60;;;;;;5032916;28;20441;-68
2023/11/22 01:11:59;;;;;;;12.23;9.00;;;7.70;51.80;;;;;;5032505;28;20416;-68
2023/11/22 01:14:26;;;;;;;12.97;8.73;;;7.70;52.20;;;;;;5032427;28;20762;-68
2023/11/22 01:16:51;;;;;;;16.53;9.10;;;7.60;52.30;;;;;;5033148;28;20470;-68
2023/11/22 01:19:17;;;;;;;14.47;10.43;;;7.60;53.60;;;;;;5031011;28;20445;-69
2023/11/22 01:21:42;;;;;;;13.87;9.40;;;7.60;54.90;;;;;;5032783;28;20449;-69
2023/11/22 01:24:08;;;;;;;12.30;8.90;;;7.60;54.10;;;;;;5033098;28;20205;-69
2023/11/22 01:26:34;;;;;;;18.13;9.60;;;7.70;54.40;;;;;;5032781;28;20175;-68
2023/11/22 01:29:00;;;;;;;7.37;6.00;;;7.60;54.80;;;;;;5032425;28;20484;-68
2023/11/22 01:31:27;;;;;;;4.40;2.57;;;7.40;55.20;;;;;;5030448;28;20434;-68
2023/11/22 01:33:53;;;;;;;4.13;3.10;;;7.30;53.60;;;;;;5030784;28;20176;-68
2023/11/22 01:36:19;;;;;;;4.73;2.77;;;7.10;53.60;;;;;;5031818;28;20413;-69
2023/11/22 01:38:46;;;;;;;5.90;3.47;;;6.90;55.10;;;;;;5030990;28;20425;-69
2023/11/22 01:41:15;;;;;;;3.43;2.80;;;;;;;;;;5031830;28;20723;-68
2023/11/22 01:43:41;;;;;;;4.20;3.53;;;;;;;;;;5030445;28;20807;-68
2023/11/22 01:46:11;;;;;;;5.07;3.67;;;;;;;;;;5031765;28;20409;-68
2023/11/22 01:48:37;;;;;;;4.63;3.50;;;;;;;;;;5030314;28;20450;-68
2023/11/22 01:51:04;;;;;;;7.33;5.10;;;;;;;;;;5030202;28;20437;-70
2023/11/22 01:53:30;;;;;;;6.10;4.70;;;;;;;;;;5031404;28;20457;-69
2023/11/22 01:55:57;;;;;;;6.90;4.80;;;;;;;;;;5034018;28;20398;-68
2023/11/22 01:58:23;;;;;;;6.80;5.00;;;;;;;;;;5034913;28;20408;-69
2023/11/22 02:00:50;;;;;;;6.53;5.27;;;;;;;;;;5033706;28;20430;-68
2023/11/22 02:03:16;;;;;;;6.37;5.00;;;;;;;;;;5033746;28;20454;-68
2023/11/22 02:05:42;;;;;;;7.30;5.00;;;5.40;78.60;;;;;;5034919;28;20463;-68
2023/11/22 02:08:12;;;;;;;7.97;6.37;;;5.40;60.80;;;;;;5034719;28;20458;-69
2023/11/22 02:10:38;;;;;;;7.30;5.80;;;5.30;45.80;;;;;;5033583;28;20496;-69
2023/11/22 02:13:07;;;;;;;7.40;5.67;;;5.30;46.70;;;;;;5034952;28;20834;-69
2023/11/22 02:15:33;;;;;;;6.40;5.50;;;5.30;47.40;;;;;;5033692;28;20450;-71
2023/11/22 02:17:59;;;;;;;9.47;5.87;;;5.20;46.60;;;;;;5033537;28;20418;-69
2023/11/22 02:20:25;;;;;;;8.70;6.47;;;5.20;47.20;;;;;;5035404;28;20463;-69
2023/11/22 02:22:51;;;;;;;7.57;5.87;;;5.10;47.50;;;;;;5036079;28;20178;-68
2023/11/22 02:25:16;;;;;;;9.00;6.83;;;5.10;48.20;;;;;;5035997;28;20187;-68
2023/11/22 02:27:42;;;;;;;8.37;7.07;;;5.00;48.20;;;;;;5034934;28;20541;-69
2023/11/22 02:30:08;;;;;;;7.17;5.37;;;5.00;48.20;;;;;;5034719;28;20678;-68
2023/11/22 02:32:34;;;;;;;8.00;5.50;;;5.00;48.20;;;;;;5033406;28;20175;-69
2023/11/22 02:35:00;;;;;;;7.17;5.63;;;5.00;48.70;;;;;;5034046;28;20501;-69
2023/11/22 02:37:27;;;;;;;7.40;5.50;;;5.00;48.20;;;;;;5034315;28;20179;-68
2023/11/22 02:40:20;;;;;;;11.17;6.47;;;5.00;48.20;;;;;;5033866;28;20825;-69
2023/11/22 02:42:50;;;;;;;9.07;7.67;;;5.00;48.20;;;;;;5034194;28;20933;-68
2023/11/22 02:45:23;;;;;;;7.80;6.53;;;5.00;48.20;;;;;;5033630;28;20418;-70
2023/11/22 02:47:49;;;;;;;9.43;6.20;;;4.90;47.20;;;;;;5033960;28;20515;-69
2023/11/22 02:50:15;;;;;;;9.40;7.10;;;4.90;46.80;;;;;;5033880;28;20522;-69
2023/11/22 02:52:42;;;;;;;8.40;6.50;;;4.80;46.80;;;;;;5033123;28;20642;-69
2023/11/22 02:55:11;;;;;;;7.83;5.90;;;4.80;47.10;;;;;;5034067;28;20773;-69
2023/11/22 02:57:40;;;;;;;7.93;5.47;;;4.80;48.00;;;;;;5033971;28;20505;-70
2023/11/22 03:00:07;;;;;;;8.10;5.60;;;4.90;47.40;;;;;;5032287;28;20488;-70
2023/11/22 03:02:34;;;;;;;9.10;6.23;;;4.90;47.20;;;;;;5033746;28;20422;-69
2023/11/22 03:05:00;;;;;;;7.23;6.53;;;4.90;46.40;;;;;;5033648;28;20448;-68
2023/11/22 03:07:26;;;;;;;8.17;5.87;;;4.90;44.80;;;;;;5033575;28;20453;-70
2023/11/22 03:09:52;;;;;;;8.87;5.83;;;4.80;44.20;;;;;;5033481;28;20432;-69
2023/11/22 03:12:20;;;;;;;8.30;4.93;;;4.80;44.10;;;;;;5033568;28;20209;-70
2023/11/22 03:14:46;;;;;;;9.70;6.27;;;4.70;43.70;;;;;;5033471;28;20820;-69
2023/11/22 03:17:13;;;;;;;17.07;7.40;;;4.60;42.90;;;;;;5032418;28;20422;-69
2023/11/22 03:19:39;;;;;;;8.30;6.60;;;4.70;44.50;;;;;;5033337;28;20785;-69
2023/11/22 03:22:06;;;;;;;8.40;6.27;;;4.70;44.80;;;;;;5032075;28;20452;-71
2023/11/22 03:24:34;;;;;;;24.53;6.73;;;4.60;43.90;;;;;;5033275;28;20412;-69
2023/11/22 03:27:01;;;;;;;6.70;4.97;;;4.50;42.50;;;;;;5033480;28;20445;-68
2023/11/22 03:29:27;;;;;;;10.27;6.90;;;4.40;40.30;;;;;;5031837;28;20476;-69
2023/11/22 03:31:53;;;;;;;7.37;5.40;;;4.30;39.20;;;;;;5033169;28;20409;-69
2023/11/22 03:34:19;;;;;;;7.10;4.60;;;4.20;40.20;;;;;;5033169;28;20414;-69
2023/11/22 03:36:45;;;;;;;6.88;5.20;;;4.10;39.60;;;;;;5033372;28;20220;-68
2023/11/22 03:39:10;;;;;;;7.03;4.80;;;4.10;40.10;;;;;;5032963;28;20178;-69
2023/11/22 03:41:37;;;;;;;10.00;6.13;;;4.00;40.50;;;;;;5038702;22;20255;-70
2023/11/22 03:44:04;;;;;;;7.47;5.83;;;4.00;41.10;;;;;;5013093;28;20242;-70
2023/11/22 03:46:30;;;;;;;9.77;6.17;;;4.00;41.70;;;;;;5013236;28;20887;-71
2023/11/22 03:48:55;;;;;;;9.43;5.90;;;3.90;40.80;;;;;;5013016;28;20596;-71
2023/11/22 03:51:21;;;;;;;5.77;4.60;;;3.80;40.50;;;;;;5012974;28;20800;-70
2023/11/22 03:53:46;;;;;;;10.00;5.27;;;3.70;38.70;;;;;;5012752;28;20257;-70
2023/11/22 03:56:12;;;;;;;11.10;6.47;;;3.70;39.30;;;;;;5013005;28;20271;-70
2023/11/22 03:58:38;;;;;;;7.27;4.90;;;;;;;;;;5012942;28;20188;-70
2023/11/22 04:01:04;;;;;;;7.47;5.17;;;3.60;39.40;;;;;;5012674;28;20198;-70
2023/11/22 04:03:29;;;;;;;8.50;5.33;;;3.60;40.40;;;;;;5011226;28;20458;-70
2023/11/22 04:05:55;;;;;;;8.90;6.07;;;3.60;40.50;;;;;;5011840;28;20330;-70
2023/11/22 04:08:20;;;;;;;6.80;5.10;;;3.50;39.80;;;;;;5012816;28;20276;-70
2023/11/22 04:10:47;;;;;;;6.83;6.13;;;3.50;42.00;;;;;;5012682;28;20199;-71
2023/11/22 04:13:12;;;;;;;9.82;4.95;;;3.40;50.80;;;;;;5011434;28;20208;-70
2023/11/22 04:15:38;;;;;;;6.57;4.70;;;3.40;46.60;;;;;;5012275;28;20201;-70
2023/11/22 04:18:04;;;;;;;9.63;5.83;;;3.30;43.50;;;;;;5012429;28;20186;-70
2023/11/22 04:20:29;;;;;;;8.27;5.20;;;3.30;42.20;;;;;;5012395;28;20205;-71
2023/11/22 04:22:55;;;;;;;8.00;5.70;;;3.30;42.70;;;;;;5012413;28;20187;-70
2023/11/22 04:25:20;;;;;;;8.10;5.33;;;3.30;45.60;;;;;;5012258;28;20205;-70
2023/11/22 04:27:46;;;;;;;10.23;5.60;;;3.20;39.20;;;;;;5012456;28;20554;-70
2023/11/22 04:30:14;;;;;;;8.90;5.07;;;3.10;37.40;;;;;;5011110;28;20208;-70
2023/11/22 04:32:40;;;;;;;7.95;5.63;;;3.10;37.80;;;;;;5012338;28;20536;-70
2023/11/22 04:35:06;;;;;;;7.60;5.10;;;3.00;38.30;;;;;;5012211;28;20246;-71
2023/11/22 04:37:32;;;;;;;6.88;4.68;;;3.10;39.50;;;;;;5012188;28;20176;-70
2023/11/22 04:39:58;;;;;;;6.83;4.70;;;;;;;;;;5012075;28;20213;-71
2023/11/22 04:42:24;;;;;;;9.05;5.80;;;2.90;37.50;;;;;;5012249;28;20645;-71
2023/11/22 04:44:49;;;;;;;11.30;5.70;;;2.80;39.50;;;;;;5011956;28;20183;-71
2023/11/22 04:47:15;;;;;;;9.40;6.23;;;2.80;41.00;;;;;;5011894;28;20209;-71
2023/11/22 04:49:40;;;;;;;9.00;6.20;;;2.80;41.30;;;;;;5011986;28;20535;-71
2023/11/22 04:52:06;;;;;;;6.03;4.37;;;2.80;41.60;;;;;;5011846;28;20211;-71
2023/11/22 04:54:32;;;;;;;9.70;5.80;;;2.80;41.90;;;;;;5010824;28;20587;-71
2023/11/22 04:56:58;;;;;;;8.20;6.32;;;2.80;41.90;;;;;;5012038;28;20170;-71
2023/11/22 04:59:24;;;;;;;7.50;6.40;;;2.90;41.80;;;;;;5011853;28;20174;-71
2023/11/22 05:01:49;;;;;;;7.50;5.43;;;2.80;41.40;;;;;;5010665;28;20228;-71
2023/11/22 05:04:15;;;;;;;6.43;5.03;;;2.90;41.50;;;;;;5011833;28;20274;-71
2023/11/22 05:06:41;;;;;;;9.03;6.83;;;2.90;42.40;;;;;;5011938;28;20539;-71
2023/11/22 05:09:06;;;;;;;12.10;6.83;;;2.90;41.40;;;;;;5010512;28;20638;-71
2023/11/22 05:11:32;;;;;;;10.70;6.33;;;2.90;41.50;;;;;;5011817;28;20195;-71
2023/11/22 05:13:57;;;;;;;8.77;5.97;;;2.90;41.50;;;;;;5011618;28;20181;-71
2023/11/22 05:16:23;;;;;;;10.20;7.30;;;2.90;41.50;;;;;;5011769;28;20274;-71
2023/11/22 05:18:50;;;;;;;8.27;6.43;;;3.00;41.50;;;;;;5011810;28;20609;-71
2023/11/22 05:21:15;;;;;;;10.18;5.85;;;3.00;42.30;;;;;;5011673;28;20202;-71
2023/11/22 05:23:41;;;;;;;10.57;7.77;;;3.10;42.30;;;;;;5011818;28;20191;-71
2023/11/22 05:26:06;;;;;;;9.53;6.17;;;3.10;41.60;;;;;;5011900;28;20391;-71
2023/11/22 05:28:33;;;;;;;8.47;5.93;;;3.10;39.90;;;;;;5012001;28;20217;-71
2023/11/22 05:30:59;;;;;;;9.38;6.35;;;3.10;38.60;;;;;;5014994;28;20202;-71
2023/11/22 05:33:24;;;;;;;8.77;6.77;;;3.10;37.60;;;;;;5015296;28;20189;-71
2023/11/22 05:35:50;;;;;;;10.60;6.77;;;3.10;38.10;;;;;;5015422;28;20191;-71
2023/11/22 05:38:16;;;;;;;7.40;5.87;;;3.00;36.70;;;;;;5015472;28;20185;-70
2023/11/22 05:40:42;;;;;;;10.83;5.37;;;3.10;36.70;;;;;;5015263;28;20683;-70
2023/11/22 05:43:09;;;;;;;7.97;5.93;;;3.00;35.70;;;;;;5015492;28;20171;-70
2023/11/22 05:45:35;;;;;;;6.65;5.65;;;3.00;34.00;;;;;;5013817;28;20595;-70
2023/11/22 05:48:01;;;;;;;7.57;4.93;;;2.90;32.00;;;;;;5015277;28;20289;-70
2023/11/22 05:50:26;;;;;;;12.00;6.00;;;2.80;31.10;;;;;;5014964;28;20199;-70
2023/11/22 05:52:52;;;;;;;7.83;5.33;;;2.70;31.20;;;;;;5015220;28;20197;-70
2023/11/22 05:55:18;;;;;;;8.33;5.43;;;2.70;31.10;;;;;;5015064;28;20167;-71
2023/11/22 05:57:44;;;;;;;7.13;5.30;;;2.70;31.10;;;;;;5015133;28;20876;-71
2023/11/22 06:00:10;;;;;;;8.03;5.20;;;2.80;32.10;;;;;;5015041;28;20231;-74
2023/11/22 06:02:39;;;;;;;5.95;3.97;;;2.70;31.10;;;;;;5015236;28;20421;-70
2023/11/22 06:05:05;;;;;;;7.47;5.65;;;2.70;29.30;;;;;;5014632;28;20607;-70
2023/11/22 06:07:31;;;;;;;9.60;4.75;;;2.60;29.00;;;;;;5014882;28;20562;-70
2023/11/22 06:09:57;;;;;;;6.10;4.80;;;2.60;27.70;;;;;;5013633;28;20207;-70
2023/11/22 06:12:23;;;;;;;7.70;4.70;;;2.60;28.80;;;;;;5014650;28;20202;-70
2023/11/22 06:14:48;;;;;;;5.60;3.93;;;2.60;26.80;;;;;;5014442;28;20191;-70
2023/11/22 06:17:14;;;;;;;5.87;3.80;;;2.60;28.20;;;;;;5013375;28;20554;-70
2023/11/22 06:19:41;;;;;;;8.87;4.50;;;2.60;26.20;;;;;;5013433;28;20185;-70
2023/11/22 06:22:07;;;;;;;7.00;4.25;;;2.60;25.80;;;;;;5013143;28;20550;-70
2023/11/22 06:24:33;;;;;;;6.85;4.20;;;2.50;25.00;;;;;;5014263;28;20190;-70
2023/11/22 06:26:59;;;;;;;7.13;4.05;;;2.50;24.70;;;;;;5014613;28;20174;-70
2023/11/22 06:29:24;;;;;;;5.30;3.50;;;2.40;24.30;;;;;;5014180;28;20543;-70
2023/11/22 06:31:50;;;;;;;5.93;3.60;;;2.40;24.80;;;;;;5014365;28;20715;-70
2023/11/22 06:34:15;;;;;;;6.83;4.60;;;2.50;24.50;;;;;;5013932;28;20555;-71
2023/11/22 06:36:41;;;;;;;6.33;4.03;;;2.50;24.00;;;;;;5014364;28;20176;-69
2023/11/22 06:39:08;;;;;;;7.20;5.20;;;2.40;23.80;;;;;;5014335;28;20208;-69
2023/11/22 06:41:34;;;;;;;6.60;4.80;;;2.50;24.50;;;;;;5013986;28;20817;-68
2023/11/22 06:44:00;;;;;;;8.87;5.00;;;2.50;23.90;;;;;;5012627;28;20200;-69
2023/11/22 06:46:26;;;;;;;7.80;4.40;;;2.50;24.10;;;;;;5013959;28;20182;-69
2023/11/22 06:48:51;;;;;;;6.30;4.10;;;2.50;23.80;;;;;;5013734;28;20457;-69
2023/11/22 06:51:18;;;;;;;7.60;4.53;;;2.50;21.90;;;;;;5012590;28;20231;-70
2023/11/22 06:53:44;;;;;;;7.18;4.72;;;2.50;21.40;;;;;;5014167;28;20680;-69
2023/11/22 06:56:11;;;;;;;7.38;4.60;;;2.50;21.90;;;;;;5013855;28;20168;-69
2023/11/22 06:58:36;;;;;;;7.10;4.10;;;2.70;22.80;;;;;;5013779;28;20201;-69
2023/11/22 07:01:02;;;;;;;6.23;4.37;;;2.70;20.70;;;;;;5012542;28;20237;-70
2023/11/22 07:03:27;;;;;;;6.70;4.80;;;2.70;19.10;;;;;;5013342;28;20650;-70
2023/11/22 07:05:53;;;;;;;6.70;4.67;;;2.70;18.70;;;;;;5013751;28;20185;-70
2023/11/22 07:08:19;;;;;;;6.30;3.80;;;2.70;20.10;;;;;;5013575;28;20208;-70
2023/11/22 07:10:45;;;;;;;6.70;4.53;;;2.80;19.30;;;;;;5013577;28;20262;-70
2023/11/22 07:13:12;;;;;;;5.57;3.70;;;2.80;18.70;;;;;;5014031;28;20647;-70
2023/11/22 07:15:38;;;;;;;7.10;4.82;;;2.80;19.90;;;;;;5013521;28;20175;-70
2023/11/22 07:18:05;;;;;;;5.63;3.80;;;2.80;18.70;;;;;;5013631;28;20186;-70
2023/11/22 07:20:31;;;;;;;6.85;4.10;;;2.90;20.10;;;;;;5013365;28;20436;-70
2023/11/22 07:22:57;;;;;;;6.80;3.57;;;3.00;19.30;;;;;;5013779;28;20694;-70
2023/11/22 07:25:24;;;;;;;6.50;4.20;;;3.00;18.90;;;;;;5011867;28;20431;-70
2023/11/22 07:27:51;;;;;;;8.18;4.53;;;3.00;18.90;;;;;;5013838;28;20222;-70
2023/11/22 07:30:19;;;;;;;5.85;3.88;;;3.00;15.60;;;;;;5012897;28;20192;-69
2023/11/22 07:32:44;;;;;;;5.10;3.97;;;3.00;15.60;;;;;;5012923;28;20181;-70
2023/11/22 07:35:11;;;;;;;6.43;4.43;;;3.10;16.50;;;;;;5014123;28;20182;-70
2023/11/22 07:37:42;;;;;;;7.47;3.80;;;3.10;15.30;;;;;;5013081;28;20177;-69
2023/11/22 07:40:09;;;;;;;7.60;4.65;;;3.20;14.70;;;;;;5012854;28;20638;-70
2023/11/22 07:42:38;;;;;;;8.38;5.18;;;3.30;14.80;;;;;;5012980;28;20177;-70
2023/11/22 07:45:04;;;;;;;8.85;4.60;;;3.30;14.80;;;;;;5004725;28;20282;-69
2023/11/22 07:47:29;;;;;;;6.60;4.28;;;3.40;15.20;;;;;;5007833;28;20674;-70
2023/11/22 07:49:55;;;;;;;8.03;4.60;;;3.40;14.10;;;;;;5007183;28;20231;-72
2023/11/22 07:52:21;;;;;;;5.70;3.73;;;3.40;12.40;;;;;;5010872;28;20244;-69
2023/11/22 07:54:47;;;;;;;7.72;5.05;;;3.30;12.60;;;;;;5012360;28;20265;-68
2023/11/22 07:57:13;;;;;;;5.77;3.93;;;3.30;13.50;;;;;;5011645;28;20759;-67
2023/11/22 07:59:39;;;;;;;6.90;5.20;;;3.40;14.90;;;;;;5011719;28;20183;-68
2023/11/22 08:02:11;;;;;;;5.73;4.27;;;3.40;14.70;;;;;;5010243;28;20189;-68
2023/11/22 08:04:37;;;;;;;7.15;4.32;;;3.30;11.90;;;;;;5004773;28;20429;-68
2023/11/22 08:07:03;;;;;;;5.95;4.00;;;3.20;11.80;;;;;;5007163;28;20173;-68
2023/11/22 08:09:32;;;;;;;6.22;5.22;;;3.40;12.70;;;;;;5007704;28;20191;-68
2023/11/22 08:12:02;;;;;;;5.95;4.30;;;3.40;12.20;;;;;;5008227;28;20513;-68
2023/11/22 08:14:28;;;;;;;5.88;4.05;;;3.40;12.60;;;;;;5007306;28;20596;-68
2023/11/22 08:16:54;;;;;;;6.10;3.70;;;3.50;10.90;;;;;;5004911;28;20188;-68
2023/11/22 08:19:23;;;;;;;7.28;4.60;;;3.40;12.10;;;;;;5007153;28;20190;-68
2023/11/22 08:21:49;;;;;;;6.22;4.22;;;3.50;13.20;;;;;;5009175;28;20191;-68
2023/11/22 08:24:14;;;;;;;5.90;5.17;;;3.60;11.60;;;;;;5010431;28;20684;-68
2023/11/22 08:26:40;;;;;;;5.37;4.23;;;3.60;10.70;;;;;;5010324;28;20202;-68
2023/11/22 08:29:07;;;;;;;6.27;4.53;;;3.50;11.20;;;;;;5011687;28;20314;-68
2023/11/22 08:31:34;;;;;;;8.30;4.82;;;3.50;11.20;;;;;;5010895;28;20488;-70
2023/11/22 08:33:59;;;;;;;5.07;3.20;;;3.60;11.20;;;;;;5008738;28;20177;-69
2023/11/22 08:36:28;;;;;;;6.77;4.83;;;3.60;11.30;;;;;;5010616;28;20653;-70
2023/11/22 08:38:55;;;;;;;6.40;4.57;;;3.70;10.80;;;;;;5008914;28;20785;-70
2023/11/22 08:41:21;;;;;;;6.47;4.80;;;3.70;10.80;;;;;;5008722;28;20219;-74
2023/11/22 08:43:47;;;;;;;9.82;6.22;;;3.70;11.00;;;;;;5011109;28;20187;-77
2023/11/22 08:46:14;;;;;;;7.30;4.60;;;3.80;10.80;;;;;;5009791;28;20217;-67
2023/11/22 08:48:39;;;;;;;6.63;4.72;;;3.80;10.60;;;;;;5010797;28;20212;-67
2023/11/22 08:51:07;;;;;;;5.95;4.75;;;3.80;6.50;;;;;;5010955;28;20566;-67
2023/11/22 08:53:33;;;;;;;6.30;4.70;;;3.80;5.80;;;;;;5009714;28;20188;-68
2023/11/22 08:55:58;;;;;;;7.20;4.20;;;3.80;5.90;;;;;;5010114;28;20432;-67
2023/11/22 08:58:24;;;;;;;5.83;3.93;;;3.90;5.40;;;;;;5010259;28;20179;-67
2023/11/22 09:00:50;;;;;;;7.03;4.93;;;4.00;5.30;;;;;;5010816;28;20204;-69
2023/11/22 09:03:17;;;;;;;4.90;3.57;;;4.00;5.20;;;;;;5012244;28;20661;-67
2023/11/22 09:05:46;;;;;;;6.93;3.67;;;4.20;4.90;;;;;;5015285;28;20182;-67
2023/11/22 09:08:15;;;;;;;6.60;4.43;;;4.00;2.10;;;;;;5014129;28;20458;-67
2023/11/22 09:10:41;;;;;;;6.75;4.72;;;3.90;5.10;;;;;;5013901;28;20906;-67
2023/11/22 09:13:08;;;;;;;6.30;5.20;;;3.80;7.50;;;;;;5015468;28;20186;-67
2023/11/22 09:15:35;;;;;;;6.65;4.47;;;3.80;7.80;;;;;;5014978;28;20430;-67
2023/11/22 09:18:01;;;;;;;7.47;4.20;;;3.70;9.30;;;;;;5007183;28;20190;-67
2023/11/22 09:20:27;;;;;;;5.43;4.32;;;3.80;10.80;;;;;;5015672;28;20441;-68
2023/11/22 09:22:54;;;;;;;8.30;4.63;;;3.90;10.90;;;;;;5015513;28;20216;-67
2023/11/22 09:25:21;;;;;;;5.20;3.63;;;3.80;9.00;;;;;;4997913;28;20188;-67
2023/11/22 09:27:51;;;;;;;5.17;4.10;;;3.70;9.40;;;;;;4995743;28;20257;-67
2023/11/22 09:30:32;;;;;;;4.72;3.55;;;3.50;10.10;;;;;;4995712;28;20945;-68
2023/11/22 09:33:06;;;;;;;5.47;4.57;;;3.40;11.20;;;;;;5010955;28;20186;-67
2023/11/22 09:35:32;;;;;;;6.18;4.65;;;3.40;11.50;;;;;;4995615;28;20634;-68
2023/11/22 09:38:02;;;;;;;6.97;3.97;;;3.40;10.60;;;;;;4995840;28;20218;-67
2023/11/22 09:40:29;;;;;;;6.43;4.20;;;3.20;10.50;;;;;;4995859;28;20234;-68
2023/11/22 09:42:55;;;;;;;8.38;4.05;;;3.20;10.50;;;;;;4996174;28;20550;-68
2023/11/22 09:45:21;;;;;;;8.50;4.25;;;3.10;10.40;;;;;;4995915;28;20179;-68
2023/11/22 09:47:47;;;;;;;7.60;3.70;;;3.20;12.40;;;;;;4995790;28;20217;-68
2023/11/22 09:50:25;;;;;;;5.68;3.90;;;3.30;12.40;;;;;;4995629;28;20434;-68
2023/11/22 09:52:53;;;;;;;5.30;4.45;;;3.40;12.40;;;;;;4995845;28;20526;-68
2023/11/22 09:55:22;;;;;;;5.60;4.17;;;3.40;10.60;;;;;;4995691;28;20187;-68
2023/11/22 09:57:48;;;;;;;7.60;4.68;;;3.40;10.60;;;;;;5010638;28;20422;-68
2023/11/22 10:00:18;;;;;;;4.65;3.72;;;3.50;10.70;;;;;;4995503;28;20210;-68
2023/11/22 10:02:44;;;;;;;10.75;4.65;;;3.50;10.40;;;;;;4995378;28;20182;-68
2023/11/22 10:05:11;;;;;;;6.75;4.50;;;3.40;10.60;;;;;;4995480;28;20217;-68
2023/11/22 10:07:37;;;;;;;7.57;4.05;;;3.50;11.20;;;;;;4995174;28;20287;-68
2023/11/22 10:10:05;;;;;;;6.07;4.18;;;3.50;10.70;;;;;;5010405;28;20209;-68
2023/11/22 10:12:31;;;;;;;6.80;4.55;;;3.40;10.90;;;;;;4995251;28;20176;-68
2023/11/22 10:15:13;;;;;;;6.60;4.43;;;3.40;11.00;;;;;;4994473;28;20204;-68
2023/11/22 10:17:38;;;;;;;6.80;5.20;;;3.40;10.60;;;;;;4995207;28;20173;-68
2023/11/22 10:20:10;;;;;;;5.60;4.60;;;3.50;11.70;;;;;;4995147;28;20248;-67
2023/11/22 10:22:44;;;;;;;9.23;5.55;;;3.50;9.90;;;;;;4995116;28;20354;-67
2023/11/22 10:25:10;;;;;;;12.32;3.97;;;3.50;9.60;;;;;;5009970;28;20187;-67
2023/11/22 10:27:37;;;;;;;7.50;5.30;;;3.50;9.70;;;;;;4994934;28;20283;-67
2023/11/22 10:30:04;;;;;;;7.00;5.38;;;3.50;9.70;;;;;;4995007;28;20448;-70
2023/11/22 10:32:30;;;;;;;21.73;4.65;;;3.40;10.30;;;;;;4994763;28;20672;-70
2023/11/22 10:34:55;;;;;;;6.87;4.70;;;3.40;10.20;;;;;;4994536;28;20188;-70
2023/11/22 10:37:24;;;;;;;6.37;4.90;;;3.40;9.30;;;;;;4994708;28;20185;-70
2023/11/22 10:39:53;;;;;;;6.72;4.32;;;3.30;9.60;;;;;;4994290;28;20303;-70
2023/11/22 10:42:19;;;;;;;8.43;5.10;;;3.40;10.20;;;;;;4994564;28;20176;-70
2023/11/22 10:44:46;;;;;;;11.25;4.43;;;3.40;9.90;;;;;;4994396;28;20579;-70
2023/11/22 10:47:17;;;;;;;6.75;3.90;;;3.50;10.00;;;;;;4994342;28;20638;-70
2023/11/22 10:49:43;;;;;;;7.30;4.57;;;3.60;9.40;;;;;;4994180;28;20201;-70
2023/11/22 10:52:13;;;;;;;6.67;4.70;;;3.50;8.90;;;;;;4994377;28;20178;-70
2023/11/22 10:54:44;;;;;;;7.20;4.60;;;3.50;9.80;;;;;;4994083;28;20415;-70
2023/11/22 10:57:13;;;;;;;6.93;5.13;;;3.50;10.40;;;;;;4994277;28;20185;-70
2023/11/22 10:59:43;;;;;;;7.40;5.03;;;3.50;9.50;;;;;;5009193;28;20182;-70
2023/11/22 11:02:15;;;;;;;8.00;4.82;;;3.50;9.80;;;;;;4994161;28;20419;-70
2023/11/22 11:04:51;;;;;;;7.40;4.60;;;3.50;9.50;;;;;;4993933;28;20160;-70
2023/11/22 11:07:22;;;;;;;6.90;4.00;;;3.40;9.10;;;;;;4998004;28;20703;-70
2023/11/22 11:09:50;;;;;;;8.63;5.18;;;3.50;9.30;;;;;;5011239;28;20189;-70
2023/11/22 11:12:18;;;;;;;5.50;4.22;;;3.50;9.00;;;;;;5010846;28;20183;-70
2023/11/22 11:14:46;;;;;;;7.72;5.65;;;3.40;8.80;;;;;;5000494;28;20186;-68
2023/11/22 11:17:13;;;;;;;7.07;4.60;;;3.30;9.00;;;;;;5009460;28;20185;-70
2023/11/22 11:19:38;;;;;;;7.82;5.05;;;3.30;10.20;;;;;;5013103;28;20173;-70
2023/11/22 11:22:09;;;;;;;7.47;4.73;;;3.40;10.60;;;;;;5013111;28;20186;-69
2023/11/22 11:24:44;;;;;;;5.68;4.22;;;3.40;10.60;;;;;;5013018;28;20250;-70
2023/11/22 11:27:13;;;;;;;6.67;4.73;;;3.60;10.70;;;;;;5010930;28;20190;-70
2023/11/22 11:29:42;;;;;;;5.88;4.53;;;3.70;10.50;;;;;;5013023;28;20872;-70
2023/11/22 11:32:15;;;;;;;7.25;5.85;;;3.80;10.80;;;;;;5013148;28;20177;-71
2023/11/22 11:34:49;;;;;;;7.70;4.80;;;3.80;8.70;;;;;;5012820;28;20182;-71
2023/11/22 11:37:15;;;;;;;6.75;4.85;;;3.40;8.20;;;;;;5013017;28;20208;-71
2023/11/22 11:39:40;;;;;;;6.80;4.90;;;3.70;8.10;;;;;;5012824;28;20202;-71
2023/11/22 11:42:10;;;;;;;7.20;5.00;;;3.60;7.60;;;;;;5011436;28;20649;-71
2023/11/22 11:44:37;;;;;;;8.23;4.70;;;3.50;8.90;;;;;;5011459;28;20174;-71
2023/11/22 11:47:10;;;;;;;7.65;4.78;;;3.40;10.10;;;;;;5012861;28;20196;-71
2023/11/22 11:49:39;;;;;;;7.63;4.88;;;3.40;10.80;;;;;;5012791;28;20669;-70
2023/11/22 11:52:04;;;;;;;7.53;5.15;;;3.30;10.50;;;;;;5012879;28;20189;-71
2023/11/22 11:54:30;;;;;;;11.07;5.20;;;3.30;12.10;;;;;;5012740;28;20186;-69
2023/11/22 11:57:00;;;;;;;8.13;5.63;;;3.40;12.40;;;;;;5013347;28;20431;-72
2023/11/22 11:59:26;;;;;;;9.82;5.53;;;3.40;10.60;;;;;;5012644;28;20169;-72
2023/11/22 12:01:56;;;;;;;7.80;5.93;;;3.50;11.30;;;;;;5012542;28;20543;-71
2023/11/22 12:04:26;;;;;;;11.77;7.07;;;3.40;9.90;;;;;;5008839;28;20524;-72
2023/11/22 12:06:51;;;;;;;8.32;5.22;;;3.40;9.70;;;;;;4994059;28;20194;-72
2023/11/22 12:09:25;;;;;;;10.33;5.30;;;3.40;11.30;;;;;;4992900;28;20208;-72
2023/11/22 12:11:53;;;;;;;7.22;5.35;;;3.30;11.50;;;;;;4991514;28;20197;-72
2023/11/22 12:14:19;;;;;;;7.15;5.13;;;3.20;11.30;;;;;;4993178;28;20187;-72
2023/11/22 12:16:48;;;;;;;6.15;4.30;;;3.20;12.00;;;;;;5002977;28;20214;-72
2023/11/22 12:19:22;;;;;;;15.70;6.95;;;3.20;10.50;;;;;;4992909;28;20244;-72
2023/11/22 12:21:48;;;;;;;9.15;4.70;;;3.30;13.20;;;;;;5007703;28;20342;-72
2023/11/22 12:24:15;;;;;;;8.05;4.43;;;3.50;13.30;;;;;;4992365;28;20540;-72
2023/11/22 12:26:50;;;;;;;10.30;6.10;;;3.40;9.70;;;;;;5011210;28;20242;-72
2023/11/22 12:29:20;;;;;;;12.25;7.30;;;3.30;10.50;;;;;;5012122;28;20215;-72
2023/11/22 12:31:50;;;;;;;8.90;6.00;;;3.20;11.70;;;;;;5006463;28;20290;-72
2023/11/22 12:34:20;;;;;;;12.02;5.25;;;3.20;10.90;;;;;;5009394;28;20210;-73
2023/11/22 12:36:47;;;;;;;8.35;5.30;;;3.20;11.40;;;;;;5010733;28;20229;-70
2023/11/22 12:39:16;;;;;;;5.35;4.10;;;3.20;10.80;;;;;;5011787;28;20196;-69
2023/11/22 12:41:47;;;;;;;9.25;5.53;;;3.20;10.50;;;;;;5011965;28;20206;-70
2023/11/22 12:44:13;;;;;;;12.25;5.80;;;3.10;10.90;;;;;;4992249;28;20190;-70
2023/11/22 12:46:48;;;;;;;10.27;5.43;;;3.10;11.80;;;;;;4992366;28;20233;-70
2023/11/22 12:49:18;;;;;;;9.75;5.72;;;3.10;11.20;;;;;;4993958;28;20714;-70
2023/11/22 12:51:48;;;;;;;7.90;5.93;;;3.10;10.40;;;;;;5011976;28;20194;-70
2023/11/22 12:54:14;;;;;;;8.95;5.05;;;3.10;11.30;;;;;;5012258;28;20174;-70
2023/11/22 12:56:41;;;;;;;8.50;6.13;;;3.10;12.20;;;;;;5012343;28;20258;-70
2023/11/22 12:59:07;;;;;;;9.02;5.10;;;3.20;11.00;;;;;;5012051;28;20189;-70